Time;durP1;ratioP1;P1;durP2;ratioP2;P2;SDS_P1;SDS_P2;PMS_P1;PMS_P2;Temp;Humidity;BMP_temperature;BMP_pressure;BME280_temperature;BME280_humidity;BME280_pressure;Samples;Min_cycle;Max_cycle;Signal;HPM_P1;HPM_P2
2022/06/20 00:00:47;;;;;;;3.03;0.88;;;;;;;22.55;45.82;98425.22;5080467;28;20028;-68
2022/06/20 00:03:21;;;;;;;4.90;1.08;;;;;;;22.55;45.61;98419.81;5095582;28;20051;-68
2022/06/20 00:05:47;;;;;;;3.60;0.90;;;;;;;22.55;45.59;98417.13;5095704;28;20115;-68
2022/06/20 00:08:12;;;;;;;1.30;0.85;;;;;;;22.58;45.55;98410.44;5095327;28;20124;-66
2022/06/20 00:10:41;;;;;;;1.38;0.75;;;;;;;22.59;45.44;98414.78;5095611;28;20028;-67
2022/06/20 00:13:14;;;;;;;1.20;0.73;;;;;;;22.59;45.41;98428.25;5095131;28;20080;-68
2022/06/20 00:15:40;;;;;;;3.20;1.48;;;;;;;22.57;45.15;98425.00;5095511;28;20043;-67
2022/06/20 00:18:06;;;;;;;2.90;1.25;;;;;;;22.53;45.21;98419.22;5095743;28;20036;-66
2022/06/20 00:20:32;;;;;;;4.40;0.90;;;;;;;22.55;45.14;98430.59;5095191;28;20536;-69
2022/06/20 00:22:59;;;;;;;1.83;0.75;;;;;;;22.53;45.37;98417.34;5094778;28;20035;-66
2022/06/20 00:25:25;;;;;;;1.95;0.70;;;;;;;22.51;45.40;98411.38;5095113;28;20035;-67
2022/06/20 00:27:53;;;;;;;4.55;0.73;;;;;;;22.48;45.23;98401.03;5095220;28;20035;-67
2022/06/20 00:30:20;;;;;;;3.92;0.90;;;;;;;22.43;45.30;98411.66;5095018;28;20040;-70
2022/06/20 00:32:45;;;;;;;2.60;1.30;;;;;;;22.45;45.51;98408.75;5082430;28;20151;-70
2022/06/20 00:35:12;;;;;;;1.30;0.90;;;;;;;22.42;45.42;98406.50;5074652;28;20116;-66
2022/06/20 00:37:37;;;;;;;3.40;1.10;;;;;;;22.43;45.33;98408.16;5074665;28;20122;-70
2022/06/20 00:40:16;;;;;;;3.05;1.15;;;;;;;22.39;45.19;98399.66;5075144;28;20111;-68
2022/06/20 00:42:41;;;;;;;2.40;0.80;;;;;;;22.38;45.43;98392.63;5074556;28;20043;-68
2022/06/20 00:45:09;;;;;;;0.80;0.70;;;;;;;22.40;45.40;98372.50;5074498;28;20029;-68
2022/06/20 00:47:36;;;;;;;3.90;1.05;;;;;;;22.40;45.17;98366.28;5074516;28;20055;-70
2022/06/20 00:50:04;;;;;;;1.67;0.65;;;;;;;22.44;45.30;98383.66;5091835;28;20040;-67
2022/06/20 00:52:43;;;;;;;3.00;0.73;;;;;;;22.47;45.10;98401.28;5094400;28;20031;-69
2022/06/20 00:55:18;;;;;;;1.60;0.90;;;;;;;22.46;45.24;98396.94;5094642;28;20040;-68
2022/06/20 00:57:49;;;;;;;1.70;0.88;;;;;;;22.41;45.39;98413.75;5094233;28;20479;-68
2022/06/20 01:00:18;;;;;;;4.93;1.00;;;;;;;22.42;45.50;98412.72;5087981;28;20051;-68
2022/06/20 01:02:53;;;;;;;2.05;0.85;;;;;;;22.37;45.28;98412.53;5092947;28;20410;-66
2022/06/20 01:05:24;;;;;;;1.75;0.85;;;;;;;22.34;45.63;98419.22;5094493;28;20020;-69
2022/06/20 01:08:16;;;;;;;2.63;1.42;;;;;;;22.33;45.77;98435.59;5094202;28;20023;-67
2022/06/20 01:10:52;;;;;;;2.17;1.17;;;;;;;22.29;45.76;98432.53;5090991;28;20047;-68
2022/06/20 01:13:21;;;;;;;1.55;0.73;;;;;;;22.27;45.88;98429.22;5094407;28;20090;-66
2022/06/20 01:15:49;;;;;;;1.92;0.63;;;;;;;22.27;45.92;98417.66;5094634;28;20028;-68
2022/06/20 01:18:24;;;;;;;4.28;1.58;;;;;;;22.24;45.91;98418.91;5093961;28;20039;-68
2022/06/20 01:20:51;;;;;;;1.35;0.90;;;;;;;22.22;46.09;98411.06;5093902;28;20036;-69
2022/06/20 01:23:32;;;;;;;3.35;0.90;;;;;;;22.21;45.93;98405.88;5093716;28;20027;-68
2022/06/20 01:26:10;;;;;;;2.25;1.00;;;;;;;22.22;46.10;98426.38;5094174;28;20035;-69
2022/06/20 01:28:39;;;;;;;2.65;0.80;;;;;;;22.19;46.10;98416.88;5093916;28;20114;-68
2022/06/20 01:31:07;;;;;;;2.08;1.20;;;;;;;22.19;46.15;98427.66;5094148;28;20127;-70
2022/06/20 01:33:33;;;;;;;2.08;0.82;;;;;;;22.18;45.90;98439.47;5093477;28;20063;-68
2022/06/20 01:38:45;;;;;;;3.92;1.00;;;;;;;22.13;46.26;98435.81;5093809;28;20104;-67
2022/06/20 01:43:59;;;;;;;2.63;1.13;;;;;;;22.14;46.24;98424.00;5094472;28;20459;-67
2022/06/20 01:46:30;;;;;;;3.08;1.10;;;;;;;22.13;46.25;98412.38;5082039;28;20039;-69
2022/06/20 01:49:02;;;;;;;2.45;1.05;;;;;;;22.14;46.12;98405.94;5082116;28;20107;-67
2022/06/20 01:51:33;;;;;;;2.38;1.00;;;;;;;22.12;46.19;98404.53;5093719;28;20074;-69
2022/06/20 01:53:59;;;;;;;;;;;;;;;22.07;46.35;98397.13;5094575;28;20110;-70
2022/06/20 01:56:27;;;;;;;1.58;1.02;;;;;;;22.10;46.16;98391.31;5093572;28;19989;-69
2022/06/20 01:59:03;;;;;;;1.83;0.85;;;;;;;22.11;46.19;98390.25;5093448;28;20059;-70
2022/06/20 02:01:33;;;;;;;1.23;0.70;;;;;;;22.12;46.24;98383.81;5093178;28;20031;-68
2022/06/20 02:04:01;;;;;;;2.15;1.00;;;;;;;22.15;46.23;98390.63;5093225;28;20089;-71
2022/06/20 02:06:28;;;;;;;3.15;0.98;;;;;;;22.17;46.28;98400.13;5093352;28;20398;-67
2022/06/20 02:08:55;;;;;;;1.23;0.70;;;;;;;22.15;46.11;98393.31;5093463;28;20088;-69
2022/06/20 02:11:26;;;;;;;2.55;0.65;;;;;;;22.19;46.05;98408.00;5093437;28;20431;-69
2022/06/20 02:13:56;;;;;;;3.22;0.85;;;;;;;22.18;46.25;98404.47;5093372;28;20390;-69
2022/06/20 02:16:25;;;;;;;1.75;0.90;;;;;;;22.18;45.73;98403.66;5093057;28;20036;-70
2022/06/20 02:18:54;;;;;;;0.90;0.73;;;;;;;22.19;46.04;98422.28;5091948;28;20495;-69
2022/06/20 02:21:23;;;;;;;1.40;0.88;;;;;;;22.20;45.94;98436.59;5093321;28;20122;-70
2022/06/20 02:23:54;;;;;;;2.15;1.10;;;;;;;22.19;46.02;98433.06;5093296;28;20066;-68
2022/06/20 02:26:22;;;;;;;1.85;0.77;;;;;;;22.16;46.15;98428.09;5093083;28;20042;-70
2022/06/20 02:28:59;;;;;;;2.28;1.10;;;;;;;22.16;46.22;98444.25;5093287;28;20556;-66
2022/06/20 02:31:26;;;;;;;1.50;0.80;;;;;;;22.18;46.06;98411.72;5092769;28;20237;-69
2022/06/20 02:33:53;;;;;;;1.60;0.90;;;;;;;22.19;46.14;98410.69;5093325;28;20032;-71
2022/06/20 02:36:18;;;;;;;1.30;0.85;;;;;;;22.21;46.09;98409.41;5092892;28;20049;-69
2022/06/20 02:38:45;;;;;;;1.63;0.90;;;;;;;22.23;45.97;98384.91;5092659;28;20486;-69
2022/06/20 02:41:12;;;;;;;0.88;0.80;;;;;;;22.21;46.16;98368.16;5092960;28;20166;-69
2022/06/20 02:43:49;;;;;;;2.22;1.00;;;;;;;22.21;46.06;98366.31;5092634;28;20035;-68
2022/06/20 02:46:18;;;;;;;1.65;0.80;;;;;;;22.22;46.16;98365.25;5092786;28;20035;-68
2022/06/20 02:48:49;;;;;;;2.17;1.08;;;;;;;22.22;45.90;98343.69;5092768;28;20209;-68
2022/06/20 02:51:20;;;;;;;1.63;0.85;;;;;;;22.25;45.94;98356.72;5092927;28;20032;-69
2022/06/20 02:53:56;;;;;;;1.73;0.70;;;;;;;22.25;45.76;98372.88;5092852;28;20036;-70
2022/06/20 02:56:24;;;;;;;0.85;0.68;;;;;;;22.26;45.82;98379.09;5092839;28;20024;-72
2022/06/20 02:58:56;;;;;;;2.67;0.70;;;;;;;22.27;45.87;98396.09;5092726;28;20513;-69
2022/06/20 03:01:46;;;;;;;2.40;1.00;;;;;;;22.21;46.03;98385.16;5092498;28;20085;-69
2022/06/20 03:04:12;;;;;;;0.77;0.60;;;;;;;22.18;46.19;98396.38;5092525;28;20123;-69
2022/06/20 03:06:45;;;;;;;2.85;0.95;;;;;;;22.16;46.04;98385.00;5092621;28;20184;-70
2022/06/20 03:09:14;;;;;;;1.05;0.95;;;;;;;22.18;46.04;98376.72;5093064;28;20395;-70
2022/06/20 03:11:40;;;;;;;1.75;0.85;;;;;;;22.19;45.91;98346.03;5092523;28;20027;-70
2022/06/20 03:14:13;;;;;;;1.63;0.70;;;;;;;22.25;45.89;98340.56;5092980;28;20090;-71
2022/06/20 03:16:41;;;;;;;0.90;0.52;;;;;;;22.30;45.82;98337.19;5092263;28;20016;-71
2022/06/20 03:19:25;;;;;;;1.73;0.93;;;;;;;22.33;45.79;98352.06;5092036;28;20506;-73
2022/06/20 03:21:54;;;;;;;2.53;0.93;;;;;;;22.37;45.95;98369.44;5092185;28;20028;-67
2022/06/20 03:24:22;;;;;;;2.08;1.13;;;;;;;22.37;45.61;98366.72;5092882;28;20028;-69
2022/06/20 03:26:50;;;;;;;2.72;1.70;;;;;;;22.34;46.03;98359.94;5092179;28;20040;-68
2022/06/20 03:29:18;;;;;;;2.08;1.08;;;;;;;22.30;46.15;98356.03;5093085;28;20118;-71
2022/06/20 03:31:43;;;;;;;2.75;1.02;;;;;;;22.29;46.13;98350.84;5096470;28;20058;-70
2022/06/20 03:34:11;;;;;;;2.40;0.90;;;;;;;22.27;46.07;98350.28;5096460;28;20040;-67
2022/06/20 03:36:39;;;;;;;6.63;0.90;;;;;;;22.27;46.14;98358.38;5096393;28;20085;-69
2022/06/20 03:39:05;;;;;;;4.78;0.82;;;;;;;22.26;46.39;98373.69;5095841;28;20047;-70
2022/06/20 03:41:31;;;;;;;1.50;0.70;;;;;;;22.24;46.30;98382.03;5096226;28;20364;-68
2022/06/20 03:44:12;;;;;;;2.40;0.80;;;;;;;22.23;46.34;98377.69;5095971;28;20446;-70
2022/06/20 03:46:43;;;;;;;1.67;0.95;;;;;;;22.20;46.23;98374.63;5095954;28;20042;-67
2022/06/20 03:49:18;;;;;;;3.35;2.03;;;;;;;22.22;46.14;98385.97;5096036;28;20051;-68
2022/06/20 03:52:02;;;;;;;1.92;1.17;;;;;;;22.19;46.01;98383.75;5096024;28;20040;-69
2022/06/20 03:54:54;;;;;;;1.40;0.75;;;;;;;22.18;46.12;98403.66;5095900;28;20059;-68
2022/06/20 03:57:28;;;;;;;4.57;1.95;;;;;;;22.19;46.16;98422.28;5084985;28;20043;-71
2022/06/20 04:00:06;;;;;;;4.10;1.20;;;;;;;22.21;46.14;98385.16;5096001;28;20391;-67
2022/06/20 04:02:41;;;;;;;1.45;0.70;;;;;;;22.26;46.00;98389.88;5095798;28;20386;-66
2022/06/20 04:05:18;;;;;;;1.80;0.70;;;;;;;22.30;45.92;98360.59;5095783;28;20479;-69
2022/06/20 04:07:46;;;;;;;2.70;0.70;;;;;;;22.32;45.91;98362.03;5095403;28;20032;-69
2022/06/20 04:13:42;;;;;;;2.13;1.08;;;;;;;22.28;45.96;98354.63;5095742;28;20038;-67
2022/06/20 04:16:33;;;;;;;3.38;0.75;;;;;;;22.28;46.05;98378.88;5053982;28;20054;-68
2022/06/20 04:19:09;;;;;;;2.00;0.73;;;;;;;22.26;45.92;98379.09;5095680;28;20040;-71
2022/06/20 04:21:50;;;;;;;2.63;1.27;;;;;;;22.27;45.98;98371.84;5095264;28;20483;-68
2022/06/20 04:24:30;;;;;;;1.48;0.90;;;;;;;22.28;45.81;98374.31;5095258;28;20028;-66
2022/06/20 04:27:18;;;;;;;2.13;0.82;;;;;;;22.32;45.78;98351.25;5094930;28;20066;-67
2022/06/20 04:29:53;;;;;;;1.42;0.90;;;;;;;22.35;45.73;98358.84;5095479;28;20483;-69
2022/06/20 04:32:27;;;;;;;2.13;0.93;;;;;;;22.37;45.76;98358.66;5094722;28;20052;-69
2022/06/20 04:35:24;;;;;;;1.35;0.80;;;;;;;22.37;45.71;98364.03;5095175;28;20028;-70
2022/06/20 04:37:53;;;;;;;4.45;1.20;;;;;;;22.37;45.93;98391.78;5078602;28;20039;-68
2022/06/20 04:40:28;;;;;;;1.63;0.80;;;;;;;22.40;45.57;98398.63;5094293;28;20092;-70
2022/06/20 04:43:08;;;;;;;2.65;1.00;;;;;;;22.41;45.59;98389.50;5094563;28;20101;-68
2022/06/20 04:46:14;;;;;;;2.40;0.90;;;;;;;22.44;45.70;98393.63;5095354;28;20471;-68
2022/06/20 04:48:40;;;;;;;1.88;1.10;;;;;;;22.47;45.70;98374.31;5012692;28;20469;-67
2022/06/20 04:51:08;;;;;;;5.13;0.80;;;;;;;22.48;45.62;98355.22;5012517;28;20172;-70
2022/06/20 04:53:39;;;;;;;2.58;1.80;;;;;;;22.54;45.57;98361.56;5052733;28;20499;-68
2022/06/20 04:56:07;;;;;;;2.30;0.90;;;;;;;22.57;45.38;98357.59;5094422;28;20035;-69
2022/06/20 04:58:43;;;;;;;2.25;0.63;;;;;;;22.57;45.13;98363.00;5094579;28;20114;-71
2022/06/20 05:01:09;;;;;;;3.38;0.80;;;;;;;22.58;45.11;98356.53;5094285;28;20040;-69
2022/06/20 05:03:40;;;;;;;2.40;1.00;;;;;;;22.60;45.01;98362.50;5094263;28;20505;-69
2022/06/20 05:06:15;;;;;;;1.88;0.60;;;;;;;22.60;45.27;98366.06;5093940;28;20036;-68
2022/06/20 05:08:46;;;;;;;2.63;0.98;;;;;;;22.63;45.31;98372.84;5094474;28;20479;-70
2022/06/20 05:11:20;;;;;;;1.60;0.93;;;;;;;22.63;45.03;98384.47;5093912;28;20063;-69
2022/06/20 05:13:53;;;;;;;2.92;0.73;;;;;;;22.63;45.12;98368.28;5094314;28;20545;-70
2022/06/20 05:16:23;;;;;;;2.17;0.95;;;;;;;22.64;45.02;98375.34;5093900;28;20040;-68
2022/06/20 05:18:54;;;;;;;2.38;0.75;;;;;;;22.65;45.23;98395.03;5094126;28;20119;-68
2022/06/20 05:21:24;;;;;;;1.88;0.85;;;;;;;22.68;45.19;98408.84;5094267;28;20039;-68
2022/06/20 05:23:54;;;;;;;4.82;0.90;;;;;;;22.70;45.14;98404.06;5094621;28;20089;-68
2022/06/20 05:26:26;;;;;;;3.45;0.93;;;;;;;22.76;45.04;98406.91;5093906;28;20060;-71
2022/06/20 05:28:54;;;;;;;6.03;0.98;;;;;;;22.80;44.96;98403.53;5094247;28;20428;-70
2022/06/20 05:31:30;;;;;;;1.33;0.75;;;;;;;22.83;44.79;98411.16;5093875;28;20032;-68
2022/06/20 05:34:02;;;;;;;3.33;1.35;;;;;;;22.82;44.69;98404.13;5094114;28;20043;-70
2022/06/20 05:36:34;;;;;;;3.03;0.90;;;;;;;22.80;44.87;98422.41;5093707;28;20032;-67
2022/06/20 05:39:21;;;;;;;2.40;0.90;;;;;;;22.77;44.73;98446.31;5093931;28;20035;-73
2022/06/20 05:41:49;;;;;;;2.47;0.63;;;;;;;22.71;44.90;98461.53;5093800;28;20040;-72
2022/06/20 05:44:15;;;;;;;4.85;0.90;;;;;;;22.70;45.23;98457.19;5093474;28;20071;-72
2022/06/20 05:47:11;;;;;;;1.63;0.90;;;;;;;22.67;45.02;98477.31;5093813;28;20062;-70
2022/06/20 05:49:49;;;;;;;3.42;1.02;;;;;;;22.65;45.24;98470.50;5080430;28;20043;-72
2022/06/20 05:52:20;;;;;;;1.73;0.88;;;;;;;22.64;45.11;98466.16;5093152;28;20032;-65
2022/06/20 05:55:10;;;;;;;3.67;1.00;;;;;;;22.62;45.14;98462.88;5093738;28;20119;-69
2022/06/20 05:57:38;;;;;;;1.87;0.87;;;;;;;22.61;45.06;98480.94;5093377;28;20047;-66
2022/06/20 06:00:16;;;;;;;2.47;0.90;;;;;;;22.64;45.09;98480.47;5093591;28;20272;-69
2022/06/20 06:03:17;;;;;;;3.60;1.00;;;;;;;22.63;45.01;98468.03;5093396;28;20403;-70
2022/06/20 06:05:52;;;;;;;3.70;0.90;;;;;;;22.62;45.22;98465.56;5031328;28;20069;-70
2022/06/20 06:08:39;;;;;;;3.08;1.08;;;;;;;22.64;45.28;98450.81;5084246;28;20044;-67
2022/06/20 06:11:04;;;;;;;5.57;1.10;;;;;;;22.64;45.22;98450.00;5093359;28;20039;-68
2022/06/20 06:13:58;;;;;;;3.63;0.73;;;;;;;22.66;45.03;98450.59;5093149;28;20031;-71
2022/06/20 06:16:47;;;;;;;1.58;1.02;;;;;;;22.67;45.19;98438.75;5093212;28;20027;-71
2022/06/20 06:19:34;;;;;;;2.33;0.70;;;;;;;22.71;44.94;98429.16;5092816;28;20034;-69
2022/06/20 06:22:19;;;;;;;4.07;1.23;;;;;;;22.77;44.97;98427.44;5093247;28;20028;-69
2022/06/20 06:24:46;;;;;;;1.60;0.95;;;;;;;22.81;44.70;98428.59;5092851;28;20035;-69
2022/06/20 06:27:31;;;;;;;2.78;1.05;;;;;;;22.94;44.66;98416.81;5092919;28;20055;-67
2022/06/20 06:30:06;;;;;;;5.72;0.90;;;;;;;22.99;44.48;98417.78;5092877;28;20404;-69
2022/06/20 06:33:03;;;;;;;3.75;0.90;;;;;;;23.07;44.34;98405.03;5092595;28;20048;-71
2022/06/20 06:35:36;;;;;;;2.25;0.90;;;;;;;23.11;44.35;98400.78;5093108;28;20067;-69
2022/06/20 06:38:04;;;;;;;2.88;0.70;;;;;;;23.12;44.37;98422.16;5092647;28;20060;-71
2022/06/20 06:40:50;;;;;;;2.65;1.05;;;;;;;23.14;44.48;98430.84;5092962;28;20024;-69
2022/06/20 06:43:30;;;;;;;2.28;1.05;;;;;;;23.15;44.46;98420.88;5092892;28;20027;-69
2022/06/20 06:46:00;;;;;;;1.50;0.70;;;;;;;23.19;44.05;98432.84;5092696;28;20020;-67
2022/06/20 06:48:39;;;;;;;4.25;0.85;;;;;;;23.21;44.33;98432.66;5092650;28;20360;-68
2022/06/20 06:51:09;;;;;;;1.75;0.93;;;;;;;23.24;44.27;98435.69;5092439;28;20036;-70
2022/06/20 06:53:41;;;;;;;4.18;1.05;;;;;;;23.30;44.10;98437.47;5092615;28;20115;-72
2022/06/20 06:56:19;;;;;;;2.08;1.05;;;;;;;23.36;44.03;98440.31;5092785;28;20047;-68
2022/06/20 06:58:56;;;;;;;4.50;1.00;;;;;;;23.41;43.76;98432.34;5092440;28;20040;-70
2022/06/20 07:01:49;;;;;;;2.53;0.73;;;;;;;23.47;43.90;98436.81;5092442;28;20039;-68
2022/06/20 07:04:26;;;;;;;3.30;1.17;;;;;;;23.53;43.37;98443.16;5092945;28;20051;-69
2022/06/20 07:07:14;;;;;;;1.63;0.95;;;;;;;23.59;43.64;98445.75;5096981;28;20036;-67
2022/06/20 07:09:45;;;;;;;1.70;0.90;;;;;;;23.68;43.41;98451.63;5096427;28;20031;-66
2022/06/20 07:12:39;;;;;;;3.13;1.00;;;;;;;23.73;43.31;98449.06;5096849;28;20115;-68
2022/06/20 07:15:11;;;;;;;2.58;1.10;;;;;;;23.76;43.08;98462.06;5096784;28;20036;-70
2022/06/20 07:17:56;;;;;;;2.97;1.08;;;;;;;23.77;43.41;98458.31;5096365;28;20491;-70
2022/06/20 07:20:26;;;;;;;3.80;1.10;;;;;;;23.82;43.35;98459.50;5096358;28;20044;-70
2022/06/20 07:22:52;;;;;;;2.28;1.00;;;;;;;23.82;43.46;98467.63;5096554;28;20055;-70
2022/06/20 07:25:26;;;;;;;2.95;0.70;;;;;;;23.83;43.30;98475.47;5096622;28;20082;-70
2022/06/20 07:28:01;;;;;;;2.65;0.93;;;;;;;23.83;43.39;98469.25;5096256;28;20081;-67
2022/06/20 07:30:32;;;;;;;2.25;1.13;;;;;;;23.83;43.35;98469.25;5096459;28;20063;-67
2022/06/20 07:33:04;;;;;;;;;;;;;;;23.73;43.40;98457.16;5096459;28;20051;-68
2022/06/20 07:35:37;;;;;;;4.80;0.95;;;;;;;23.73;43.37;98462.56;5096107;28;19916;-72
2022/06/20 07:38:18;;;;;;;3.55;1.27;;;;;;;23.76;43.21;98456.69;5096173;28;20028;-72
2022/06/20 07:40:52;;;;;;;3.70;0.90;;;;;;;23.77;43.32;98457.53;5096608;28;20035;-68
2022/06/20 07:43:27;;;;;;;2.60;0.80;;;;;;;23.77;42.92;98450.22;5096003;28;20032;-69
2022/06/20 07:45:55;;;;;;;3.33;1.10;;;;;;;23.77;43.19;98458.31;5096652;28;20052;-71
2022/06/20 07:48:30;;;;;;;2.75;1.15;;;;;;;23.77;42.66;98461.03;5095522;28;20024;-69
2022/06/20 07:51:01;;;;;;;2.67;0.88;;;;;;;23.77;43.36;98463.72;5096330;28;20619;-67
2022/06/20 07:53:39;;;;;;;5.45;1.30;;;;;;;23.77;42.60;98463.72;5095989;28;20107;-70
2022/06/20 07:56:26;;;;;;;2.88;0.98;;;;;;;23.78;43.17;98461.88;5095721;28;20062;-69
2022/06/20 07:59:00;;;;;;;3.28;1.23;;;;;;;23.78;42.80;98459.97;5096053;28;20036;-70
2022/06/20 08:01:35;;;;;;;10.95;1.40;;;;;;;23.79;42.68;98452.72;5095889;28;20031;-68
2022/06/20 08:04:09;;;;;;;3.13;1.00;;;;;;;23.80;42.90;98459.75;5095850;28;20039;-71
2022/06/20 08:06:39;;;;;;;3.22;1.23;;;;;;;23.81;42.29;98456.00;5095518;28;20028;-69
2022/06/20 08:09:30;;;;;;;2.40;1.25;;;;;;;23.80;42.85;98467.03;5095619;28;20039;-69
2022/06/20 08:12:04;;;;;;;2.83;1.00;;;;;;;23.81;42.45;98476.78;5057493;28;20130;-69
2022/06/20 08:14:40;;;;;;;5.07;1.40;;;;;;;23.79;42.57;98485.13;5095615;28;20436;-70
2022/06/20 08:17:09;;;;;;;4.32;1.45;;;;;;;23.80;42.77;98478.66;5093647;28;20118;-67
2022/06/20 08:19:36;;;;;;;2.42;0.90;;;;;;;23.84;42.54;98476.31;5095139;28;20111;-67
2022/06/20 08:22:16;;;;;;;3.10;0.95;;;;;;;23.88;42.79;98475.59;5095209;28;20024;-71
2022/06/20 08:24:49;;;;;;;4.05;0.93;;;;;;;23.91;42.17;98461.63;5095263;28;20028;-69
2022/06/20 08:27:22;;;;;;;4.57;1.08;;;;;;;23.93;42.15;98473.03;5094953;28;20085;-70
2022/06/20 08:29:58;;;;;;;2.35;1.10;;;;;;;23.97;42.36;98467.19;5093077;28;20024;-66
2022/06/20 08:32:46;;;;;;;2.30;0.98;;;;;;;23.99;42.10;98474.00;5084032;28;20067;-70
2022/06/20 08:35:43;;;;;;;3.72;0.80;;;;;;;24.03;41.98;98463.53;5094829;28;20164;-65
2022/06/20 08:38:19;;;;;;;2.40;1.08;;;;;;;24.04;42.20;98468.69;5045887;28;20063;-70
2022/06/20 08:40:50;;;;;;;3.20;1.42;;;;;;;24.08;42.18;98460.97;5091933;28;20395;-70
2022/06/20 08:43:28;;;;;;;2.25;0.98;;;;;;;24.08;41.70;98464.47;5094512;28;20028;-68
2022/06/20 08:46:14;;;;;;;5.78;1.10;;;;;;;24.07;41.72;98480.94;5094586;28;20063;-67
2022/06/20 08:49:24;;;;;;;5.20;1.80;;;;;;;24.06;41.58;98471.19;5083766;28;20031;-69
2022/06/20 08:52:14;;;;;;;14.50;1.10;;;;;;;24.10;41.32;98471.53;5094358;28;20028;-67
2022/06/20 08:54:42;;;;;;;5.78;1.00;;;;;;;24.10;41.27;98463.41;5091156;28;20120;-62
2022/06/20 08:57:51;;;;;;;6.35;1.33;;;;;;;24.10;41.63;98447.19;5090522;28;20062;-64
2022/06/20 09:00:19;;;;;;;4.10;1.25;;;;;;;24.06;41.70;98446.84;5085043;28;20028;-64
2022/06/20 09:03:07;;;;;;;3.03;1.23;;;;;;;24.05;41.77;98443.31;5074302;28;20545;-65
2022/06/20 09:06:01;;;;;;;8.07;1.40;;;;;;;24.03;41.50;98452.72;5092520;28;20028;-65
2022/06/20 09:08:36;;;;;;;2.88;1.02;;;;;;;24.04;41.34;98473.28;5094375;28;20121;-63
2022/06/20 09:11:12;;;;;;;5.88;0.88;;;;;;;24.04;41.70;98473.28;5076037;28;20036;-63
2022/06/20 09:14:11;;;;;;;2.60;1.10;;;;;;;24.03;41.54;98488.69;5074483;28;20028;-62
2022/06/20 09:16:57;;;;;;;5.05;1.63;;;;;;;24.02;41.48;98476.25;5079476;28;20525;-65
2022/06/20 09:19:45;;;;;;;13.60;2.55;;;;;;;24.04;41.52;98481.41;5093997;28;20032;-66
2022/06/20 09:22:33;;;;;;;46.90;12.20;;;;;;;24.06;41.88;98487.38;5094193;28;20024;-68
2022/06/20 09:25:20;;;;;;;107.13;30.17;;;;;;;24.06;41.87;98485.50;5094431;28;20417;-64
2022/06/20 09:28:06;;;;;;;160.65;42.20;;;;;;;24.06;41.81;98477.38;5093334;28;20062;-66
2022/06/20 09:30:52;;;;;;;146.82;37.40;;;;;;;24.06;41.57;98481.97;5086942;28;20096;-64
2022/06/20 09:33:45;;;;;;;98.05;29.63;;;;;;;24.05;41.37;98464.94;5093379;28;20056;-64
2022/06/20 09:36:22;;;;;;;94.60;26.38;;;;;;;24.05;41.42;98453.31;5093796;28;20032;-66
2022/06/20 09:39:16;;;;;;;85.43;24.17;;;;;;;24.06;41.26;98461.19;5092916;28;20441;-65
2022/06/20 09:42:06;;;;;;;69.15;19.75;;;;;;;24.07;40.65;98470.13;5093754;28;20036;-65
2022/06/20 09:45:03;;;;;;;51.80;14.57;;;;;;;24.07;40.84;98467.41;5093005;28;20119;-67
2022/06/20 09:48:11;;;;;;;49.00;14.32;;;;;;;24.06;40.84;98465.78;5065187;28;20036;-67
2022/06/20 09:51:01;;;;;;;41.90;9.50;;;;;;;24.03;40.58;98464.38;5068723;28;20063;-67
2022/06/20 09:53:57;;;;;;;29.27;9.00;;;;;;;24.02;40.33;98468.13;5090233;28;20039;-67
2022/06/20 09:56:35;;;;;;;27.95;8.10;;;;;;;24.01;40.42;98469.19;5092109;28;20048;-67
2022/06/20 09:59:10;;;;;;;29.77;8.02;;;;;;;24.02;40.23;98470.84;5073101;28;20177;-67
2022/06/20 10:01:52;;;;;;;24.50;9.45;;;;;;;24.03;40.07;98474.34;5091807;28;20475;-67
2022/06/20 10:04:32;;;;;;;27.13;5.95;;;;;;;24.02;39.47;98484.34;5089571;28;20028;-65
2022/06/20 10:07:17;;;;;;;20.98;6.80;;;;;;;23.99;39.60;98482.09;5084042;28;20028;-68
2022/06/20 10:09:52;;;;;;;17.42;6.05;;;;;;;23.97;39.85;98472.59;5086389;28;20396;-71
2022/06/20 10:12:50;;;;;;;14.55;4.85;;;;;;;23.92;39.87;98474.09;5090206;28;20072;-66
2022/06/20 10:15:36;;;;;;;22.08;3.97;;;;;;;23.89;40.01;98468.34;5055344;28;20123;-68
2022/06/20 10:18:46;;;;;;;22.38;4.90;;;;;;;23.87;39.62;98465.84;5079587;28;20044;-65
2022/06/20 10:21:20;;;;;;;13.13;3.80;;;;;;;23.86;39.77;98476.91;5072865;28;20086;-67
2022/06/20 10:24:10;;;;;;;15.55;3.03;;;;;;;23.87;39.53;98487.47;5072842;28;20036;-68
2022/06/20 10:26:54;;;;;;;9.43;2.63;;;;;;;23.87;38.89;98486.66;5072919;28;20454;-67
2022/06/20 10:29:28;;;;;;;10.07;3.22;;;;;;;23.85;38.82;98483.34;5085178;28;20375;-67
2022/06/20 10:32:17;;;;;;;10.25;2.10;;;;;;;23.85;38.60;98488.75;5092870;28;20056;-68
2022/06/20 10:35:13;;;;;;;6.78;2.88;;;;;;;23.84;39.07;98476.31;5093087;28;20059;-67
2022/06/20 10:38:06;;;;;;;4.13;1.70;;;;;;;23.82;38.10;98487.34;5092826;28;20028;-70
2022/06/20 10:41:04;;;;;;;4.97;1.35;;;;;;;23.80;37.86;98488.63;5092531;28;20028;-68
2022/06/20 10:43:53;;;;;;;5.05;1.67;;;;;;;23.75;37.57;98484.75;5093094;28;20098;-69
2022/06/20 10:46:40;;;;;;;4.57;1.52;;;;;;;23.71;38.04;98482.75;5093362;28;20032;-67
2022/06/20 10:49:23;;;;;;;3.75;1.25;;;;;;;23.68;38.40;98489.44;5082928;28;20514;-69
2022/06/20 10:52:33;;;;;;;3.53;1.40;;;;;;;23.67;37.68;98489.69;5072622;28;20081;-69
2022/06/20 10:55:48;;;;;;;4.43;1.10;;;;;;;23.63;37.40;98489.31;5072644;28;20029;-67
2022/06/20 10:58:31;;;;;;;5.03;1.25;;;;;;;23.60;37.45;98485.19;4990925;28;20045;-70
2022/06/20 11:01:29;;;;;;;3.05;1.08;;;;;;;23.63;37.50;98473.09;4991041;28;20034;-68
2022/06/20 11:04:42;;;;;;;2.90;1.02;;;;;;;23.62;37.34;98471.47;5062711;28;20499;-67
2022/06/20 11:07:24;;;;;;;6.28;1.10;;;;;;;23.57;37.52;98472.16;4996310;28;20440;-70
2022/06/20 11:09:59;;;;;;;7.32;1.10;;;;;;;23.61;37.94;98464.41;5092296;28;20040;-70
2022/06/20 11:12:55;;;;;;;5.30;1.20;;;;;;;23.62;37.68;98464.19;5092665;28;20454;-67
2022/06/20 11:15:42;;;;;;;8.48;2.55;;;;;;;23.64;37.81;98472.06;5091377;28;20036;-69
2022/06/20 11:18:29;;;;;;;8.13;1.60;;;;;;;23.65;37.42;98470.19;5092429;28;20479;-67
2022/06/20 11:21:12;;;;;;;15.85;3.58;;;;;;;23.66;37.54;98467.25;5092418;28;20074;-71
2022/06/20 11:24:02;;;;;;;10.07;2.97;;;;;;;23.66;37.54;98467.25;5092182;28;20107;-66
2022/06/20 11:26:35;;;;;;;6.82;2.30;;;;;;;23.66;37.28;98464.53;5092539;28;20364;-66
2022/06/20 11:29:19;;;;;;;9.75;2.65;;;;;;;23.69;37.21;98474.03;5092486;28;20097;-68
2022/06/20 11:31:53;;;;;;;7.90;2.40;;;;;;;23.66;37.36;98467.25;5092249;28;20044;-68
2022/06/20 11:34:34;;;;;;;9.60;2.05;;;;;;;23.66;37.71;98469.94;5092374;28;20036;-69
2022/06/20 11:37:02;;;;;;;6.20;1.53;;;;;;;23.66;37.65;98466.44;5092294;28;20036;-68
2022/06/20 11:39:36;;;;;;;5.95;1.90;;;;;;;23.68;37.56;98470.53;5092211;28;20286;-70
2022/06/20 11:42:32;;;;;;;4.82;1.63;;;;;;;23.70;37.40;98473.00;5092149;28;20085;-69
2022/06/20 11:45:06;;;;;;;7.68;4.28;;;;;;;23.64;37.34;98463.94;5092482;28;20467;-66
2022/06/20 11:47:52;;;;;;;3.40;1.13;;;;;;;23.63;37.52;98462.31;5092333;28;20376;-67
2022/06/20 11:50:33;;;;;;;5.85;1.38;;;;;;;23.62;37.36;98457.94;5092854;28;20042;-69
2022/06/20 11:53:08;;;;;;;4.20;1.42;;;;;;;23.61;37.70;98470.66;5096398;28;20032;-67
2022/06/20 11:55:52;;;;;;;2.97;1.00;;;;;;;23.60;37.08;98465.50;5095677;28;20036;-68
2022/06/20 11:58:23;;;;;;;3.70;1.10;;;;;;;23.59;37.08;98459.25;5095917;28;20390;-68
2022/06/20 12:00:55;;;;;;;4.15;1.40;;;;;;;23.59;37.41;98456.56;5095826;28;20111;-67
2022/06/20 12:03:26;;;;;;;7.35;0.90;;;;;;;23.60;37.52;98455.50;5095896;28;20181;-69
2022/06/20 12:06:05;;;;;;;4.20;1.27;;;;;;;23.62;37.09;98461.50;5095653;28;20153;-67
2022/06/20 12:08:39;;;;;;;6.57;1.40;;;;;;;23.63;37.43;98465.00;5096197;28;20090;-68
2022/06/20 12:11:19;;;;;;;3.40;1.02;;;;;;;23.61;37.50;98459.00;5095286;28;20364;-68
2022/06/20 12:14:01;;;;;;;2.35;1.00;;;;;;;23.62;37.56;98460.66;5077276;28;20045;-66
2022/06/20 12:16:39;;;;;;;2.63;0.80;;;;;;;23.62;37.56;98457.94;5095536;28;20144;-67
2022/06/20 12:24:49;;;;;;;3.08;0.90;;;;;;;23.59;37.44;98471.94;5095963;28;20416;-68
2022/06/20 12:27:18;;;;;;;1.58;0.80;;;;;;;23.60;37.27;98468.19;5095016;28;20032;-68
2022/06/20 12:29:45;;;;;;;3.75;1.95;;;;;;;23.59;37.54;98472.75;5095202;28;20127;-68
2022/06/20 12:32:23;;;;;;;3.20;0.90;;;;;;;23.59;37.45;98471.94;5094986;28;20060;-67